Thomastown, Louisiana
Current Conditions -  °F | °C
As of 3:22 PM on Friday 19 Dec 2014 (Local Time) from KTVR Reporting Station
Light Rain Light Rain  
Wind Chill: 44°   Ceiling: 3500
Heat Index: 47°   Visibility: 8mi
Dew Point: 44°   Wind: 7mph
Humidity: 90%   Direction: 30°NNE
Pressure: 30.15"   Gusts: NA
Location:  32.3599°N, 91.2529°W
Report Text: KTVR 192122Z AUTO 03006KT 8SM -RA SCT011 OVC035 08/07 A3015 RMK AO2 P0001 T00830067
Loading
Personal Weather Stations






























Interactive Weather Map New forecast layout! Learn more

10-Day Weather Forecast

Advertisements
Track Severe Weather on mobile